Wels, Austria
Current Conditions -  °F | °C
As of 3:50 AM on Wednesday 22 Oct 2014 (Local Time) from LOWL Reporting Station
Broken Clouds Broken Clouds  
Wind Chill: 39°   Ceiling: 2800
Heat Index: 46°   Visibility: 6mi
Dew Point: 41°   Wind: 20mph
Humidity: 81%   Direction: 260°W
Pressure: 29.83"   Gusts: NA
Location:  48.17°N, 14.03°E
Report Text: LOWL 220150Z 26017KT 9999 FEW012 BKN028 BKN140 08/05 Q1010 NOSIG
Loading
Personal Weather Stations






























Interactive Weather Map
Tropical Storm Tracking
New forecast layout! Learn more

10-Day Weather Forecast

Advertisements
Track Severe Weather on mobile